createdAt,value
2023-02-24T00:00:34.650Z,91.34
2023-02-24T00:05:51.272Z,90.92
2023-02-24T00:10:54.390Z,90.51
2023-02-24T00:15:58.520Z,89.90
2023-02-24T00:21:11.042Z,89.38
2023-02-24T00:26:15.965Z,89.21
2023-02-24T00:31:20.467Z,89.35
2023-02-24T00:36:24.718Z,89.07
2023-02-24T00:41:32.616Z,89.57
2023-02-24T00:46:47.174Z,89.71
2023-02-24T00:51:54.492Z,89.92
2023-02-24T00:56:58.612Z,90.18
2023-02-24T01:02:04.187Z,90.24
2023-02-24T01:07:11.138Z,90.59
2023-02-24T01:12:23.871Z,90.70
2023-02-24T01:17:27.274Z,90.95
2023-02-24T01:22:30.554Z,91.31
2023-02-24T01:27:33.804Z,91.45
2023-02-24T01:32:37.185Z,91.52
2023-02-24T01:37:43.274Z,92.16
2023-02-24T01:42:47.986Z,92.26
2023-02-24T01:47:52.264Z,92.39
2023-02-24T01:52:58.960Z,92.87
2023-02-24T01:58:06.031Z,93.34
2023-02-24T02:03:16.933Z,93.47
2023-02-24T02:08:23.816Z,93.64
2023-02-24T02:13:28.643Z,93.43
2023-02-24T02:18:36.594Z,93.08
2023-02-24T02:23:41.122Z,92.50
2023-02-24T02:28:52.359Z,92.25
2023-02-24T02:34:13.111Z,92.29
2023-02-24T02:39:24.939Z,92.70
2023-02-24T02:44:36.272Z,93.30
2023-02-24T02:49:53.261Z,93.97
2023-02-24T02:55:08.460Z,94.79
2023-02-24T03:00:15.068Z,96.15
2023-02-24T03:05:22.069Z,97.19
2023-02-24T03:10:27.946Z,98.89
2023-02-24T03:15:33.123Z,99.73
2023-02-24T03:20:39.860Z,100.00
2023-02-24T03:25:48.030Z,100.00
2023-02-24T03:31:03.900Z,100.00
2023-02-24T03:36:07.629Z,100.00
2023-02-24T03:41:11.957Z,100.00
2023-02-24T03:46:17.274Z,100.00
2023-02-24T03:51:23.592Z,100.00
2023-02-24T03:56:43.398Z,100.00
2023-02-24T04:01:52.187Z,100.00
2023-02-24T04:06:56.505Z,100.00
2023-02-24T04:12:17.011Z,100.00
2023-02-24T04:17:30.350Z,100.00
2023-02-24T04:22:36.217Z,100.00
2023-02-24T04:27:41.542Z,100.00
2023-02-24T04:32:49.931Z,100.00
2023-02-24T04:37:54.901Z,100.00
2023-02-24T04:42:58.599Z,100.00
2023-02-24T04:48:03.043Z,100.00
2023-02-24T04:53:11.285Z,100.00
2023-02-24T04:58:19.564Z,100.00
2023-02-24T05:03:29.078Z,100.00
2023-02-24T05:08:32.433Z,100.00
2023-02-24T05:13:37.782Z,100.00
2023-02-24T05:18:41.082Z,100.00
2023-02-24T05:23:45.598Z,100.00
2023-02-24T05:28:52.320Z,100.00
2023-02-24T05:34:01.565Z,100.00
2023-02-24T05:39:08.001Z,100.00
2023-02-24T05:44:15.917Z,100.00
2023-02-24T05:49:23.717Z,100.00
2023-02-24T05:54:31.775Z,100.00
2023-02-24T05:59:35.342Z,100.00
2023-02-24T06:04:39.917Z,100.00
2023-02-24T06:09:45.148Z,100.00
2023-02-24T06:14:48.523Z,100.00
2023-02-24T06:19:52.879Z,100.00
2023-02-24T06:24:57.041Z,100.00
2023-02-24T06:30:00.821Z,100.00
2023-02-24T06:35:04.304Z,100.00
2023-02-24T06:40:17.835Z,100.00
2023-02-24T06:45:21.912Z,100.00
2023-02-24T06:50:25.689Z,100.00
2023-02-24T06:55:29.042Z,100.00
2023-02-24T07:00:39.438Z,100.00
2023-02-24T07:05:43.045Z,100.00
2023-02-24T07:10:52.340Z,100.00
2023-02-24T07:15:55.990Z,100.00
2023-02-24T07:21:11.638Z,100.00
2023-02-24T07:26:18.861Z,100.00
2023-02-24T07:31:26.587Z,100.00
2023-02-24T07:36:31.078Z,100.00
2023-02-24T07:41:37.198Z,100.00
2023-02-24T07:46:43.747Z,100.00
2023-02-24T07:51:52.801Z,100.00
2023-02-24T07:56:57.205Z,100.00
2023-02-24T08:02:04.964Z,100.00
2023-02-24T08:07:14.584Z,100.00
2023-02-24T08:12:22.083Z,100.00
2023-02-24T08:17:26.792Z,100.00
2023-02-24T08:22:37.572Z,100.00
2023-02-24T08:27:42.411Z,100.00
2023-02-24T08:32:47.094Z,100.00
2023-02-24T08:37:52.386Z,100.00
2023-02-24T08:42:58.796Z,100.00
2023-02-24T08:48:18.364Z,100.00
2023-02-24T08:53:23.954Z,100.00
2023-02-24T08:58:27.326Z,100.00
2023-02-24T09:03:33.798Z,100.00
2023-02-24T09:08:38.620Z,100.00
2023-02-24T09:13:51.863Z,100.00
2023-02-24T09:19:18.353Z,100.00
2023-02-24T09:24:27.590Z,100.00
2023-02-24T09:29:33.831Z,100.00
2023-02-24T09:34:45.787Z,100.00
2023-02-24T09:39:54.710Z,100.00
2023-02-24T09:45:11.683Z,100.00
2023-02-24T09:50:46.766Z,100.00
2023-02-24T09:56:00.507Z,100.00
2023-02-24T10:01:32.934Z,100.00
2023-02-24T10:06:45.045Z,100.00
2023-02-24T10:11:53.760Z,100.00
2023-02-24T10:17:16.496Z,100.00
2023-02-24T10:22:34.796Z,100.00
2023-02-24T10:27:44.342Z,100.00
2023-02-24T10:32:53.118Z,100.00
2023-02-24T10:38:05.392Z,100.00
2023-02-24T10:43:17.938Z,100.00
2023-02-24T10:48:42.742Z,100.00
2023-02-24T10:53:53.388Z,100.00
2023-02-24T10:59:20.312Z,100.00
2023-02-24T11:04:29.714Z,100.00
2023-02-24T11:09:35.008Z,100.00
2023-02-24T11:15:17.268Z,100.00
2023-02-24T11:20:47.427Z,100.00
2023-02-24T11:25:54.385Z,100.00
2023-02-24T11:31:10.144Z,100.00
2023-02-24T11:36:14.418Z,100.00
2023-02-24T11:41:22.278Z,100.00
2023-02-24T11:46:34.532Z,100.00
2023-02-24T11:51:38.073Z,100.00
2023-02-24T11:56:44.230Z,100.00
2023-02-24T12:01:52.624Z,100.00
2023-02-24T12:07:06.833Z,100.00
2023-02-24T12:12:23.336Z,100.00
2023-02-24T12:17:35.781Z,100.00
2023-02-24T12:22:46.115Z,100.00
2023-02-24T12:27:59.471Z,100.00
2023-02-24T12:33:25.164Z,100.00
2023-02-24T12:38:28.737Z,100.00
2023-02-24T12:43:35.294Z,100.00
2023-02-24T12:48:50.920Z,100.00
2023-02-24T12:54:29.652Z,100.00
2023-02-24T12:59:38.313Z,100.00
2023-02-24T13:04:59.667Z,100.00
2023-02-24T13:10:15.068Z,100.00
2023-02-24T13:15:22.538Z,100.00
2023-02-24T13:20:27.715Z,100.00
2023-02-24T13:25:37.172Z,100.00
2023-02-24T13:30:44.758Z,100.00
2023-02-24T13:36:16.884Z,100.00
2023-02-24T13:41:22.851Z,100.00
2023-02-24T13:46:28.744Z,100.00
2023-02-24T13:51:43.250Z,100.00
2023-02-24T13:56:55.579Z,100.00
2023-02-24T14:02:00.496Z,100.00
2023-02-24T14:07:09.041Z,100.00
2023-02-24T14:12:18.398Z,100.00
2023-02-24T14:17:28.497Z,100.00
2023-02-24T14:22:32.777Z,100.00
2023-02-24T14:27:37.501Z,100.00
2023-02-24T14:32:41.828Z,100.00
2023-02-24T14:37:46.020Z,100.00
2023-02-24T14:42:49.942Z,100.00
2023-02-24T14:47:54.220Z,100.00
2023-02-24T14:53:01.763Z,100.00
2023-02-24T14:58:24.085Z,100.00
2023-02-24T15:03:33.155Z,100.00
2023-02-24T15:08:40.519Z,100.00
2023-02-24T15:13:52.113Z,99.97
2023-02-24T15:18:59.377Z,100.00
2023-02-24T15:24:13.996Z,99.79
2023-02-24T15:29:23.018Z,98.79
2023-02-24T15:34:39.687Z,98.04
2023-02-24T15:39:44.557Z,97.21
2023-02-24T15:44:55.257Z,96.96
2023-02-24T15:49:59.178Z,96.77
2023-02-24T15:55:03.083Z,96.70
2023-02-24T16:00:13.568Z,96.80
2023-02-24T16:05:17.097Z,96.96
2023-02-24T16:10:24.421Z,96.97
2023-02-24T16:15:32.105Z,97.49
2023-02-24T16:20:39.819Z,97.47
2023-02-24T16:25:44.550Z,97.69
2023-02-24T16:30:48.484Z,97.86
2023-02-24T16:35:54.992Z,97.80
2023-02-24T16:40:58.273Z,97.20
2023-02-24T16:46:04.063Z,96.86
2023-02-24T16:51:08.375Z,96.26
2023-02-24T16:56:12.742Z,96.10
2023-02-24T17:01:21.057Z,96.10
2023-02-24T17:06:25.559Z,95.99
2023-02-24T17:11:29.255Z,94.65
2023-02-24T17:16:32.948Z,93.46
2023-02-24T17:21:36.717Z,93.74
2023-02-24T17:26:39.901Z,93.49
2023-02-24T17:31:43.363Z,93.22
2023-02-24T17:36:46.997Z,93.31
2023-02-24T17:41:50.275Z,93.71
2023-02-24T17:46:53.457Z,94.06
2023-02-24T17:51:57.341Z,94.10
2023-02-24T17:57:00.768Z,94.27
2023-02-24T18:02:04.687Z,95.05
2023-02-24T18:07:08.925Z,95.15
2023-02-24T18:12:12.381Z,95.75
2023-02-24T18:17:15.863Z,96.11
2023-02-24T18:22:19.172Z,95.81
2023-02-24T18:27:22.576Z,95.40
2023-02-24T18:32:26.275Z,95.62
2023-02-24T18:37:29.731Z,95.78
2023-02-24T18:42:33.039Z,96.04
2023-02-24T18:47:36.293Z,96.13
2023-02-24T18:52:39.992Z,96.05
2023-02-24T18:57:44.437Z,95.31
2023-02-24T19:02:47.983Z,95.51
2023-02-24T19:07:51.487Z,95.37
2023-02-24T19:12:58.412Z,95.87
2023-02-24T19:18:01.942Z,95.58
2023-02-24T19:23:06.323Z,96.01
2023-02-24T19:28:10.089Z,95.73
2023-02-24T19:33:13.519Z,96.38
2023-02-24T19:38:18.473Z,96.78
2023-02-24T19:43:21.724Z,97.02
2023-02-24T19:48:25.132Z,97.29
2023-02-24T19:53:30.601Z,97.63
2023-02-24T19:58:34.667Z,98.47
2023-02-24T20:03:38.825Z,98.59
2023-02-24T20:08:42.173Z,98.76
2023-02-24T20:13:45.778Z,99.23
2023-02-24T20:18:49.206Z,99.37
2023-02-24T20:23:52.553Z,99.27
2023-02-24T20:28:56.348Z,99.42
2023-02-24T20:33:59.661Z,98.41
2023-02-24T20:39:06.841Z,98.78
2023-02-24T20:44:11.329Z,98.46
2023-02-24T20:49:17.422Z,99.09
2023-02-24T20:54:20.964Z,99.93
2023-02-24T20:59:24.967Z,100.00
2023-02-24T21:04:28.334Z,100.00
2023-02-24T21:09:37.405Z,100.00
2023-02-24T21:14:42.096Z,100.00
2023-02-24T21:19:45.321Z,100.00
2023-02-24T21:24:48.452Z,100.00
2023-02-24T21:29:52.333Z,100.00
2023-02-24T21:34:55.590Z,100.00
2023-02-24T21:39:58.732Z,100.00
2023-02-24T21:45:02.552Z,100.00
2023-02-24T21:50:07.542Z,100.00
2023-02-24T21:55:10.857Z,100.00
2023-02-24T22:00:19.372Z,100.00
2023-02-24T22:05:24.521Z,100.00
2023-02-24T22:10:27.965Z,100.00
2023-02-24T22:15:31.226Z,100.00
2023-02-24T22:20:34.485Z,100.00
2023-02-24T22:25:37.924Z,100.00
2023-02-24T22:30:41.381Z,100.00
2023-02-24T22:35:44.803Z,100.00
2023-02-24T22:41:08.244Z,100.00
2023-02-24T22:46:16.611Z,100.00
2023-02-24T22:51:20.043Z,100.00
2023-02-24T22:56:25.793Z,100.00
2023-02-24T23:01:33.869Z,100.00
2023-02-24T23:06:37.317Z,100.00
2023-02-24T23:11:41.704Z,100.00
2023-02-24T23:16:46.695Z,100.00
2023-02-24T23:21:51.841Z,100.00
2023-02-24T23:26:57.689Z,100.00
2023-02-24T23:32:02.433Z,100.00
2023-02-24T23:37:13.485Z,100.00
2023-02-24T23:42:18.312Z,100.00
2023-02-24T23:47:21.452Z,100.00
2023-02-24T23:52:24.946Z,100.00
2023-02-24T23:57:28.655Z,100.00
